Shinsei Maru — JD3498 — position and weather

sailwx.info

Track history (hours):
 
Tides and Currents Weather Stations Pressure Air Temp Water Temp Dewpoint Dewpoint Depression Visibility Wind Speed Wind Dir Waves Ship Positions

Shinsei Maru

Last reported at 2017-Dec-11 17:00 UTC. Time now 2017-Dec-12 22:00 UTC.
Position N 34°41' E 134°49'.

Length 79 m; draft 5 m.

Type: Cargo ship. MMSI: 431004315.

Date/timePositionNaut miles runAvg speedWind from/ knotsBaromVisibWave heightAir tempDewpointWater temp
2017-Dec-11 17:00N 34°41' E 134°49'0 0.0
2017-Dec-11 16:31N 34°41' E 134°49'0 0.1
2017-Dec-11 16:00N 34°41' E 134°49'0 0.0
2017-Dec-11 15:30N 34°41' E 134°49'0 0.0
2017-Dec-11 15:00N 34°41' E 134°49'0 0.0
2017-Dec-11 14:30N 34°41' E 134°49'3 6.8
2017-Dec-11 14:01N 34°42' E 134°46'713.7
2017-Dec-11 13:30N 34°42' E 134°37'713.6
2017-Dec-11 12:59N 34°41' E 134°29'1814.0
2017-Dec-11 11:40N 34°32' E 134°09'7812.8
2017-Dec-11 05:37N 33°59' E 132°44'213.7
2017-Dec-11 05:28N 33°57' E 132°43'713.6
2017-Dec-11 04:59N 33°53' E 132°36'713.7
2017-Dec-11 04:28N 33°48' E 132°30'1213.7
2017-Dec-11 03:38N 33°44' E 132°18'214.0
2017-Dec-11 03:30N 33°43' E 132°16'1713.2
2017-Dec-11 02:12N 33°44' E 131°55'313.2
2017-Dec-11 02:01N 33°44' E 131°52'713.2
2017-Dec-11 01:30N 33°46' E 131°44'713.2
2017-Dec-11 01:00N 33°47' E 131°36'713.4
2017-Dec-11 00:30N 33°48' E 131°28'713.3
2017-Dec-11 00:00N 33°48' E 131°20'713.5
2017-Dec-10 23:30N 33°48' E 131°12'713.5
2017-Dec-10 23:01N 33°48' E 131°04'1 2.8
2017-Dec-10 22:31N 33°48' E 131°02'0 0.0
2017-Dec-10 22:01N 33°48' E 131°02'0 0.0
2017-Dec-10 21:31N 33°48' E 131°02'0 0.0
2017-Dec-10 21:00N 33°48' E 131°02'0 0.0
2017-Dec-10 20:30N 33°48' E 131°02'0 0.0
2017-Dec-10 20:01N 33°48' E 131°02'0 0.0
2017-Dec-10 19:30N 33°48' E 131°02'0 0.0
2017-Dec-10 19:00N 33°48' E 131°02'0 0.0
2017-Dec-10 18:31N 33°48' E 131°02'0 0.0
2017-Dec-10 18:00N 33°48' E 131°02'0 0.0
2017-Dec-10 17:31N 33°48' E 131°02'0 0.0
2017-Dec-10 17:00N 33°48' E 131°02'0 0.0
2017-Dec-10 16:30N 33°48' E 131°02'0 0.0
2017-Dec-10 16:00N 33°48' E 131°02'0 0.0
2017-Dec-10 15:31N 33°48' E 131°02'0 0.0
2017-Dec-10 15:01N 33°48' E 131°02'0 0.0
2017-Dec-10 14:31N 33°48' E 131°02'0 0.0
2017-Dec-10 14:00N 33°48' E 131°02'0 0.0
2017-Dec-10 13:31N 33°48' E 131°02'0 0.0
2017-Dec-10 13:01N 33°48' E 131°02'0 0.0
2017-Dec-10 12:31N 33°48' E 131°02'0 0.0
2017-Dec-10 12:01N 33°48' E 131°02'0 0.0
2017-Dec-10 11:30N 33°48' E 131°02'0 0.0
2017-Dec-10 11:01N 33°48' E 131°02'0 0.1
2017-Dec-10 10:30N 33°48' E 131°02'0 0.0
2017-Dec-10 10:00N 33°48' E 131°02'0 0.0
2017-Dec-10 09:30N 33°48' E 131°02'0 0.0
2017-Dec-10 09:00N 33°48' E 131°02'0 0.0
2017-Dec-10 08:31N 33°48' E 131°02'0 0.0
2017-Dec-10 08:00N 33°48' E 131°02'0 0.0
2017-Dec-10 07:31N 33°48' E 131°02'0 0.5
2017-Dec-10 07:01N 33°48' E 131°02'2 4.6
2017-Dec-10 06:30N 33°47' E 131°00'0 0.0
2017-Dec-10 06:00N 33°47' E 131°00'0 0.0
2017-Dec-10 05:30N 33°47' E 131°00'0 0.0
2017-Dec-10 05:00N 33°47' E 131°00'0 0.0
2017-Dec-10 04:30N 33°47' E 131°00'0 0.0
2017-Dec-10 04:00N 33°47' E 131°00'0 0.0
2017-Dec-10 03:30N 33°47' E 131°00'0 0.0
2017-Dec-10 03:00N 33°47' E 131°00'0 0.0
2017-Dec-10 02:30N 33°47' E 131°00'0 0.0
2017-Dec-10 02:00N 33°47' E 131°00'0 0.0
2017-Dec-10 01:30N 33°47' E 131°00'0 0.0
2017-Dec-10 01:00N 33°47' E 131°00'0 0.3
2017-Dec-10 00:31N 33°47' E 131°00'5 9.3
2017-Dec-10 00:00N 33°49' E 131°05'612.6
2017-Dec-09 23:30N 33°48' E 131°13'612.8
2017-Dec-09 23:00N 33°48' E 131°20'612.9
2017-Dec-09 22:30N 33°47' E 131°28'612.8
2017-Dec-09 22:00N 33°47' E 131°36'612.4
2017-Dec-09 21:30N 33°46' E 131°43'612.4
2017-Dec-09 21:00N 33°45' E 131°50'2812.3
2017-Dec-09 18:43N 33°46' E 132°24'312.6
2017-Dec-09 18:29N 33°48' E 132°27'612.3
2017-Dec-09 18:00N 33°51' E 132°33'612.1
2017-Dec-09 17:30N 33°55' E 132°38'611.5
2017-Dec-09 16:59N 33°59' E 132°44'85 9.1
2017-Dec-09 07:37N 34°25' E 134°22'211.9
2017-Dec-09 07:27N 34°25' E 134°24'612.3
2017-Dec-09 07:00N 34°27' E 134°30'612.1
2017-Dec-09 06:30N 34°30' E 134°37'612.3
2017-Dec-09 06:00N 34°32' E 134°44'713.4
2017-Dec-09 05:31N 34°35' E 134°51'713.4
2017-Dec-09 05:00N 34°37' E 134°59'713.3
2017-Dec-09 04:30N 34°36' E 135°07'612.4
2017-Dec-09 04:00N 34°37' E 135°14'5 9.4
2017-Dec-09 03:30N 34°41' E 135°15'1 1.8
2017-Dec-09 03:00N 34°42' E 135°14'0 0.0
2017-Dec-09 02:30N 34°42' E 135°14'0 0.0
2017-Dec-09 02:00N 34°42' E 135°14'0 0.0
2017-Dec-09 01:30N 34°42' E 135°14'0 0.0
2017-Dec-09 01:00N 34°42' E 135°14'0 0.0
2017-Dec-09 00:30N 34°42' E 135°14'0 0.0
2017-Dec-09 00:00N 34°42' E 135°14'0 0.0
2017-Dec-08 23:30N 34°42' E 135°14'2 3.8
2017-Dec-08 23:00N 34°40' E 135°15'3 6.5
2017-Dec-08 22:30N 34°37' E 135°16'0 0.0
2017-Dec-08 22:00N 34°37' E 135°16'0 0.0
2017-Dec-08 21:30N 34°37' E 135°16'0 0.0
2017-Dec-08 21:00N 34°37' E 135°16'0 0.0
2017-Dec-08 20:30N 34°37' E 135°16'0 0.0
2017-Dec-08 20:01N 34°37' E 135°16'0 0.0
2017-Dec-08 19:31N 34°37' E 135°16'0 0.0
2017-Dec-08 19:00N 34°37' E 135°16'0 0.0
2017-Dec-08 18:30N 34°37' E 135°16'0 0.0
2017-Dec-08 18:00N 34°37' E 135°16'1 1.1
2017-Dec-08 17:30N 34°37' E 135°15'612.7
2017-Dec-08 17:00N 34°35' E 135°08'612.7
2017-Dec-08 16:30N 34°37' E 135°00'612.4
2017-Dec-08 16:00N 34°35' E 134°53'611.8
2017-Dec-08 15:30N 34°32' E 134°47'612.2
2017-Dec-08 15:00N 34°30' E 134°40'612.7
2017-Dec-08 14:30N 34°28' E 134°33'712.9
2017-Dec-08 14:00N 34°25' E 134°26'812.8
2017-Dec-08 13:23N 34°24' E 134°16'7811.5
2017-Dec-08 06:33N 34°01' E 132°46'113.2
2017-Dec-08 06:30N 34°00' E 132°45'613.2
2017-Dec-08 06:00N 33°55' E 132°40'3812.7
2017-Dec-08 03:00N 33°43' E 131°56'713.3
2017-Dec-08 02:30N 33°45' E 131°48'612.8
2017-Dec-08 02:00N 33°46' E 131°41'612.6
2017-Dec-08 01:30N 33°47' E 131°33'612.5
2017-Dec-08 01:00N 33°47' E 131°26'612.4
2017-Dec-08 00:30N 33°48' E 131°18'612.7
2017-Dec-08 00:00N 33°48' E 131°11'612.8
2017-Dec-07 23:30N 33°48' E 131°03'3 5.3
2017-Dec-07 23:00N 33°47' E 131°00'0 0.0
2017-Dec-07 22:30N 33°47' E 131°00'0 0.0
2017-Dec-07 22:00N 33°47' E 131°00'0 0.0
2017-Dec-07 21:30N 33°47' E 131°00'0 0.0
2017-Dec-07 21:00N 33°47' E 131°00'0 0.0
2017-Dec-07 20:30N 33°47' E 131°00'0 0.0
2017-Dec-07 20:00N 33°47' E 131°00'0 0.0
2017-Dec-07 19:30N 33°47' E 131°00'0 0.0
2017-Dec-07 19:00N 33°47' E 131°00'0 0.0
2017-Dec-07 18:30N 33°47' E 131°00'0 0.0
2017-Dec-07 18:00N 33°47' E 131°00'0 0.0
2017-Dec-07 17:30N 33°47' E 131°00'0 0.0
2017-Dec-07 17:01N 33°47' E 131°00'0 0.0
2017-Dec-07 16:30N 33°47' E 131°00'0 0.0
2017-Dec-07 16:00N 33°47' E 131°00'0 0.0
2017-Dec-07 15:30N 33°47' E 131°00'0 0.0
2017-Dec-07 15:00N 33°47' E 131°00'0 0.0
2017-Dec-07 14:30N 33°47' E 131°00'0 0.0
2017-Dec-07 14:01N 33°47' E 131°00'0 0.0
2017-Dec-07 13:30N 33°47' E 131°00'0 0.0
2017-Dec-07 13:01N 33°47' E 131°00'0 0.0
2017-Dec-07 12:30N 33°47' E 131°00'0 0.0
2017-Dec-07 12:00N 33°47' E 131°00'0 0.0
2017-Dec-07 11:30N 33°47' E 131°00'0 0.0
2017-Dec-07 11:00N 33°47' E 131°00'0 0.0
2017-Dec-07 10:30N 33°47' E 131°00'0 0.0
2017-Dec-07 10:00N 33°47' E 131°00'0 0.0
2017-Dec-07 09:31N 33°47' E 131°00'0 0.1
2017-Dec-07 09:00N 33°47' E 131°00'2 3.6
2017-Dec-07 08:30N 33°48' E 131°02'612.3
2017-Dec-07 08:00N 33°49' E 131°09'612.8
2017-Dec-07 07:30N 33°48' E 131°17'612.6
2017-Dec-07 07:00N 33°48' E 131°25'612.6
2017-Dec-07 06:30N 33°47' E 131°32'612.4
2017-Dec-07 06:00N 33°46' E 131°40'612.4
2017-Dec-07 05:30N 33°46' E 131°47'612.6
2017-Dec-07 04:59N 33°44' E 131°55'1412.5
2017-Dec-07 03:51N 33°43' E 132°12'1112.2
2017-Dec-07 02:57N 33°46' E 132°24'612.0
2017-Dec-07 02:28N 33°49' E 132°30'611.7
2017-Dec-07 01:59N 33°53' E 132°35'810.4
2017-Dec-07 01:15N 33°58' E 132°42'310.7
2017-Dec-07 01:01N 33°60' E 132°44'  
2017-Dec-04 10:30N 33°49' E 131°37'612.1
2017-Dec-04 10:01N 33°50' E 131°30'612.1
2017-Dec-04 09:30N 33°51' E 131°23'612.0
2017-Dec-04 09:00N 33°52' E 131°15'4 9.0
2017-Dec-04 08:30N 33°56' E 131°14'1 1.5
2017-Dec-04 08:01N 33°57' E 131°14'0 0.0
2017-Dec-04 07:30N 33°57' E 131°14'0 0.0
2017-Dec-04 07:00N 33°57' E 131°14'0 0.0
2017-Dec-04 06:30N 33°57' E 131°14'0 0.0
2017-Dec-04 06:00N 33°57' E 131°14'1 1.1
2017-Dec-04 05:31N 33°56' E 131°14'0 0.8
2017-Dec-04 05:00N 33°56' E 131°14'5 9.7
2017-Dec-04 04:31N 33°52' E 131°11'612.2
2017-Dec-04 04:00N 33°49' E 131°04'4 7.7
2017-Dec-04 03:30N 33°47' E 131°00'0 0.0
2017-Dec-04 03:00N 33°47' E 131°00'0 0.0
2017-Dec-04 02:31N 33°47' E 131°00'0 0.0
2017-Dec-04 02:00N 33°47' E 131°00'0 0.0
2017-Dec-04 01:30N 33°47' E 131°00'0 0.0
2017-Dec-04 01:01N 33°47' E 131°00'0 0.0
2017-Dec-04 00:30N 33°47' E 131°00'0 0.0
2017-Dec-04 00:01N 33°47' E 131°00'0 0.0
2017-Dec-03 23:30N 33°47' E 131°00'0 0.0
2017-Dec-03 23:00N 33°47' E 131°00'0 0.0
2017-Dec-03 22:30N 33°47' E 131°00'0 0.0
2017-Dec-03 22:00N 33°47' E 131°00'0 0.0
2017-Dec-03 21:30N 33°47' E 131°00'0 0.0
2017-Dec-03 21:00N 33°47' E 131°00'0 0.0
2017-Dec-03 20:31N 33°47' E 131°00'0 0.0
2017-Dec-03 20:00N 33°47' E 131°00'0 0.0
2017-Dec-03 19:30N 33°47' E 131°00'0 0.0
2017-Dec-03 19:00N 33°47' E 131°00'0 0.0
2017-Dec-03 18:30N 33°47' E 131°00'0 0.0
2017-Dec-03 18:00N 33°47' E 131°00'0 0.0
2017-Dec-03 17:30N 33°47' E 131°00'0 0.0
2017-Dec-03 17:00N 33°47' E 131°00'0 0.0
2017-Dec-03 16:30N 33°47' E 131°00'0 0.0
2017-Dec-03 16:00N 33°47' E 131°00'0 0.0
2017-Dec-03 15:31N 33°47' E 131°00'0 0.0
2017-Dec-03 15:01N 33°47' E 131°00'0 0.0
2017-Dec-03 14:30N 33°47' E 131°00'0 0.0
2017-Dec-03 14:00N 33°47' E 131°00'0 0.0
2017-Dec-03 13:30N 33°47' E 131°00'0 0.0
2017-Dec-03 13:00N 33°47' E 131°00'0 0.0
2017-Dec-03 12:31N 33°47' E 131°00'0 0.0
2017-Dec-03 12:00N 33°47' E 131°00'0 0.0
2017-Dec-03 11:30N 33°47' E 131°00'0 0.0
2017-Dec-03 11:00N 33°47' E 131°00'0 0.0
2017-Dec-03 10:30N 33°47' E 131°00'0 0.0
2017-Dec-03 10:00N 33°47' E 131°00'0 0.0
2017-Dec-03 09:30N 33°47' E 131°00'0 0.2
2017-Dec-03 09:01N 33°47' E 131°00'5 9.3
2017-Dec-03 08:30N 33°48' E 131°06'713.0
2017-Dec-03 08:00N 33°48' E 131°13'613.0
2017-Dec-03 07:30N 33°47' E 131°21'713.0
2017-Dec-03 07:00N 33°46' E 131°29'613.0
2017-Dec-03 06:30N 33°47' E 131°37'612.5
2017-Dec-03 06:00N 33°46' E 131°44'612.5
2017-Dec-03 05:30N 33°45' E 131°52'1712.9
2017-Dec-03 04:13N 33°43' E 132°12'1613.7
2017-Dec-03 03:05N 33°48' E 132°29'113.9
2017-Dec-03 03:00N 33°49' E 132°30'713.5
2017-Dec-03 02:30N 33°53' E 132°36'612.6
2017-Dec-03 02:00N 33°57' E 132°42'7210.4
2017-Dec-02 19:05N 34°27' E 134°02'410.1
2017-Dec-02 18:40N 34°30' E 134°04'312.6
2017-Dec-02 18:26N 34°32' E 134°07'1012.0
2017-Dec-02 17:37N 34°36' E 134°18'412.1
2017-Dec-02 17:16N 34°39' E 134°22'412.2
2017-Dec-02 16:59N 34°40' E 134°26'612.0
2017-Dec-02 16:30N 34°42' E 134°33'611.9
2017-Dec-02 16:00N 34°42' E 134°40'611.6
2017-Dec-02 15:30N 34°41' E 134°47'3 1.2
2017-Dec-02 12:53N 34°42' E 134°50'0 0.0
2017-Dec-02 12:23N 34°42' E 134°50'0 0.0
2017-Dec-02 11:37N 34°42' E 134°50'0 0.0
2017-Dec-02 10:06N 34°42' E 134°50'0 0.0
2017-Dec-02 10:00N 34°42' E 134°50'0 0.0
2017-Dec-02 04:51N 34°42' E 134°50'0 0.0
2017-Dec-02 04:28N 34°42' E 134°50'0 0.0
2017-Dec-02 03:53N 34°42' E 134°50'0 0.0
2017-Dec-02 03:30N 34°42' E 134°50'0 0.0
2017-Dec-02 03:00N 34°42' E 134°50'0 0.0
2017-Dec-02 01:45N 34°42' E 134°50'0 0.0
2017-Dec-02 01:26N 34°42' E 134°50'0 0.0
2017-Dec-02 00:54N 34°42' E 134°50'0 0.0
2017-Dec-02 00:28N 34°42' E 134°50'0 0.0
2017-Dec-01 22:31N 34°42' E 134°50'0 0.0
2017-Dec-01 22:30N 34°42' E 134°50'3 5.2
2017-Dec-01 22:00N 34°40' E 134°49'0 0.4
2017-Dec-01 21:30N 34°40' E 134°49'0 0.0
2017-Dec-01 21:00N 34°40' E 134°49'0 0.0
2017-Dec-01 20:30N 34°40' E 134°49'0 0.0
2017-Dec-01 20:00N 34°40' E 134°49'0 0.1
2017-Dec-01 19:30N 34°40' E 134°49'0 0.0
2017-Dec-01 19:00N 34°40' E 134°49'0 0.0
2017-Dec-01 18:30N 34°40' E 134°49'0 0.0
2017-Dec-01 18:00N 34°40' E 134°49'0 0.0
2017-Dec-01 17:30N 34°40' E 134°49'  
Track history (hours):
 
Tides and Currents Weather Stations Pressure Air Temp Water Temp Dewpoint Dewpoint Depression Visibility Wind Speed Wind Dir Waves Ship Positions

Shinsei Maru

Last reported at 2017-Dec-11 17:00 UTC. Time now 2017-Dec-12 22:00 UTC.
Position N 34°41' E 134°49'.

Length 79 m; draft 5 m.

Type: Cargo ship. MMSI: 431004315.

Date/timePositionNaut miles runAvg speedWind from/ knotsBaromVisibWave heightAir tempDewpointWater temp
2017-Dec-11 17:00N 34°41' E 134°49'0 0.0
2017-Dec-11 16:31N 34°41' E 134°49'0 0.1
2017-Dec-11 16:00N 34°41' E 134°49'0 0.0
2017-Dec-11 15:30N 34°41' E 134°49'0 0.0
2017-Dec-11 15:00N 34°41' E 134°49'0 0.0
2017-Dec-11 14:30N 34°41' E 134°49'3 6.8
2017-Dec-11 14:01N 34°42' E 134°46'713.7
2017-Dec-11 13:30N 34°42' E 134°37'713.6
2017-Dec-11 12:59N 34°41' E 134°29'1814.0
2017-Dec-11 11:40N 34°32' E 134°09'7812.8
2017-Dec-11 05:37N 33°59' E 132°44'213.7
2017-Dec-11 05:28N 33°57' E 132°43'713.6
2017-Dec-11 04:59N 33°53' E 132°36'713.7
2017-Dec-11 04:28N 33°48' E 132°30'1213.7
2017-Dec-11 03:38N 33°44' E 132°18'214.0
2017-Dec-11 03:30N 33°43' E 132°16'1713.2
2017-Dec-11 02:12N 33°44' E 131°55'313.2
2017-Dec-11 02:01N 33°44' E 131°52'713.2
2017-Dec-11 01:30N 33°46' E 131°44'713.2
2017-Dec-11 01:00N 33°47' E 131°36'713.4
2017-Dec-11 00:30N 33°48' E 131°28'713.3
2017-Dec-11 00:00N 33°48' E 131°20'713.5
2017-Dec-10 23:30N 33°48' E 131°12'713.5
2017-Dec-10 23:01N 33°48' E 131°04'1 2.8
2017-Dec-10 22:31N 33°48' E 131°02'0 0.0
2017-Dec-10 22:01N 33°48' E 131°02'0 0.0
2017-Dec-10 21:31N 33°48' E 131°02'0 0.0
2017-Dec-10 21:00N 33°48' E 131°02'0 0.0
2017-Dec-10 20:30N 33°48' E 131°02'0 0.0
2017-Dec-10 20:01N 33°48' E 131°02'0 0.0
2017-Dec-10 19:30N 33°48' E 131°02'0 0.0
2017-Dec-10 19:00N 33°48' E 131°02'0 0.0
2017-Dec-10 18:31N 33°48' E 131°02'0 0.0
2017-Dec-10 18:00N 33°48' E 131°02'0 0.0
2017-Dec-10 17:31N 33°48' E 131°02'0 0.0
2017-Dec-10 17:00N 33°48' E 131°02'0 0.0
2017-Dec-10 16:30N 33°48' E 131°02'0 0.0
2017-Dec-10 16:00N 33°48' E 131°02'0 0.0
2017-Dec-10 15:31N 33°48' E 131°02'0 0.0
2017-Dec-10 15:01N 33°48' E 131°02'0 0.0
2017-Dec-10 14:31N 33°48' E 131°02'0 0.0
2017-Dec-10 14:00N 33°48' E 131°02'0 0.0
2017-Dec-10 13:31N 33°48' E 131°02'0 0.0
2017-Dec-10 13:01N 33°48' E 131°02'0 0.0
2017-Dec-10 12:31N 33°48' E 131°02'0 0.0
2017-Dec-10 12:01N 33°48' E 131°02'0 0.0
2017-Dec-10 11:30N 33°48' E 131°02'0 0.0
2017-Dec-10 11:01N 33°48' E 131°02'0 0.1
2017-Dec-10 10:30N 33°48' E 131°02'0 0.0
2017-Dec-10 10:00N 33°48' E 131°02'0 0.0
2017-Dec-10 09:30N 33°48' E 131°02'0 0.0
2017-Dec-10 09:00N 33°48' E 131°02'0 0.0
2017-Dec-10 08:31N 33°48' E 131°02'0 0.0
2017-Dec-10 08:00N 33°48' E 131°02'0 0.0
2017-Dec-10 07:31N 33°48' E 131°02'0 0.5
2017-Dec-10 07:01N 33°48' E 131°02'2 4.6
2017-Dec-10 06:30N 33°47' E 131°00'0 0.0
2017-Dec-10 06:00N 33°47' E 131°00'0 0.0
2017-Dec-10 05:30N 33°47' E 131°00'0 0.0
2017-Dec-10 05:00N 33°47' E 131°00'0 0.0
2017-Dec-10 04:30N 33°47' E 131°00'0 0.0
2017-Dec-10 04:00N 33°47' E 131°00'0 0.0
2017-Dec-10 03:30N 33°47' E 131°00'0 0.0
2017-Dec-10 03:00N 33°47' E 131°00'0 0.0
2017-Dec-10 02:30N 33°47' E 131°00'0 0.0
2017-Dec-10 02:00N 33°47' E 131°00'0 0.0
2017-Dec-10 01:30N 33°47' E 131°00'0 0.0
2017-Dec-10 01:00N 33°47' E 131°00'0 0.3
2017-Dec-10 00:31N 33°47' E 131°00'5 9.3
2017-Dec-10 00:00N 33°49' E 131°05'612.6
2017-Dec-09 23:30N 33°48' E 131°13'612.8
2017-Dec-09 23:00N 33°48' E 131°20'612.9
2017-Dec-09 22:30N 33°47' E 131°28'612.8
2017-Dec-09 22:00N 33°47' E 131°36'612.4
2017-Dec-09 21:30N 33°46' E 131°43'612.4
2017-Dec-09 21:00N 33°45' E 131°50'2812.3
2017-Dec-09 18:43N 33°46' E 132°24'312.6
2017-Dec-09 18:29N 33°48' E 132°27'612.3
2017-Dec-09 18:00N 33°51' E 132°33'612.1
2017-Dec-09 17:30N 33°55' E 132°38'611.5
2017-Dec-09 16:59N 33°59' E 132°44'85 9.1
2017-Dec-09 07:37N 34°25' E 134°22'211.9
2017-Dec-09 07:27N 34°25' E 134°24'612.3
2017-Dec-09 07:00N 34°27' E 134°30'612.1
2017-Dec-09 06:30N 34°30' E 134°37'612.3
2017-Dec-09 06:00N 34°32' E 134°44'713.4
2017-Dec-09 05:31N 34°35' E 134°51'713.4
2017-Dec-09 05:00N 34°37' E 134°59'713.3
2017-Dec-09 04:30N 34°36' E 135°07'612.4
2017-Dec-09 04:00N 34°37' E 135°14'5 9.4
2017-Dec-09 03:30N 34°41' E 135°15'1 1.8
2017-Dec-09 03:00N 34°42' E 135°14'0 0.0
2017-Dec-09 02:30N 34°42' E 135°14'0 0.0
2017-Dec-09 02:00N 34°42' E 135°14'0 0.0
2017-Dec-09 01:30N 34°42' E 135°14'0 0.0
2017-Dec-09 01:00N 34°42' E 135°14'0 0.0
2017-Dec-09 00:30N 34°42' E 135°14'0 0.0
2017-Dec-09 00:00N 34°42' E 135°14'0 0.0
2017-Dec-08 23:30N 34°42' E 135°14'2 3.8
2017-Dec-08 23:00N 34°40' E 135°15'3 6.5
2017-Dec-08 22:30N 34°37' E 135°16'0 0.0
2017-Dec-08 22:00N 34°37' E 135°16'0 0.0
2017-Dec-08 21:30N 34°37' E 135°16'0 0.0
2017-Dec-08 21:00N 34°37' E 135°16'0 0.0
2017-Dec-08 20:30N 34°37' E 135°16'0 0.0
2017-Dec-08 20:01N 34°37' E 135°16'0 0.0
2017-Dec-08 19:31N 34°37' E 135°16'0 0.0
2017-Dec-08 19:00N 34°37' E 135°16'0 0.0
2017-Dec-08 18:30N 34°37' E 135°16'0 0.0
2017-Dec-08 18:00N 34°37' E 135°16'1 1.1
2017-Dec-08 17:30N 34°37' E 135°15'612.7
2017-Dec-08 17:00N 34°35' E 135°08'612.7
2017-Dec-08 16:30N 34°37' E 135°00'612.4
2017-Dec-08 16:00N 34°35' E 134°53'611.8
2017-Dec-08 15:30N 34°32' E 134°47'612.2
2017-Dec-08 15:00N 34°30' E 134°40'612.7
2017-Dec-08 14:30N 34°28' E 134°33'712.9
2017-Dec-08 14:00N 34°25' E 134°26'812.8
2017-Dec-08 13:23N 34°24' E 134°16'7811.5
2017-Dec-08 06:33N 34°01' E 132°46'113.2
2017-Dec-08 06:30N 34°00' E 132°45'613.2
2017-Dec-08 06:00N 33°55' E 132°40'3812.7
2017-Dec-08 03:00N 33°43' E 131°56'713.3
2017-Dec-08 02:30N 33°45' E 131°48'612.8
2017-Dec-08 02:00N 33°46' E 131°41'612.6
2017-Dec-08 01:30N 33°47' E 131°33'612.5
2017-Dec-08 01:00N 33°47' E 131°26'612.4
2017-Dec-08 00:30N 33°48' E 131°18'612.7
2017-Dec-08 00:00N 33°48' E 131°11'612.8
2017-Dec-07 23:30N 33°48' E 131°03'3 5.3
2017-Dec-07 23:00N 33°47' E 131°00'0 0.0
2017-Dec-07 22:30N 33°47' E 131°00'0 0.0
2017-Dec-07 22:00N 33°47' E 131°00'0 0.0
2017-Dec-07 21:30N 33°47' E 131°00'0 0.0
2017-Dec-07 21:00N 33°47' E 131°00'0 0.0
2017-Dec-07 20:30N 33°47' E 131°00'0 0.0
2017-Dec-07 20:00N 33°47' E 131°00'0 0.0
2017-Dec-07 19:30N 33°47' E 131°00'0 0.0
2017-Dec-07 19:00N 33°47' E 131°00'0 0.0
2017-Dec-07 18:30N 33°47' E 131°00'0 0.0
2017-Dec-07 18:00N 33°47' E 131°00'0 0.0
2017-Dec-07 17:30N 33°47' E 131°00'0 0.0
2017-Dec-07 17:01N 33°47' E 131°00'0 0.0
2017-Dec-07 16:30N 33°47' E 131°00'0 0.0
2017-Dec-07 16:00N 33°47' E 131°00'0 0.0
2017-Dec-07 15:30N 33°47' E 131°00'0 0.0
2017-Dec-07 15:00N 33°47' E 131°00'0 0.0
2017-Dec-07 14:30N 33°47' E 131°00'0 0.0
2017-Dec-07 14:01N 33°47' E 131°00'0 0.0
2017-Dec-07 13:30N 33°47' E 131°00'0 0.0
2017-Dec-07 13:01N 33°47' E 131°00'0 0.0
2017-Dec-07 12:30N 33°47' E 131°00'0 0.0
2017-Dec-07 12:00N 33°47' E 131°00'0 0.0
2017-Dec-07 11:30N 33°47' E 131°00'0 0.0
2017-Dec-07 11:00N 33°47' E 131°00'0 0.0
2017-Dec-07 10:30N 33°47' E 131°00'0 0.0
2017-Dec-07 10:00N 33°47' E 131°00'0 0.0
2017-Dec-07 09:31N 33°47' E 131°00'0 0.1
2017-Dec-07 09:00N 33°47' E 131°00'2 3.6
2017-Dec-07 08:30N 33°48' E 131°02'612.3
2017-Dec-07 08:00N 33°49' E 131°09'612.8
2017-Dec-07 07:30N 33°48' E 131°17'612.6
2017-Dec-07 07:00N 33°48' E 131°25'612.6
2017-Dec-07 06:30N 33°47' E 131°32'612.4
2017-Dec-07 06:00N 33°46' E 131°40'612.4
2017-Dec-07 05:30N 33°46' E 131°47'612.6
2017-Dec-07 04:59N 33°44' E 131°55'1412.5
2017-Dec-07 03:51N 33°43' E 132°12'1112.2
2017-Dec-07 02:57N 33°46' E 132°24'612.0
2017-Dec-07 02:28N 33°49' E 132°30'611.7
2017-Dec-07 01:59N 33°53' E 132°35'810.4
2017-Dec-07 01:15N 33°58' E 132°42'310.7
2017-Dec-07 01:01N 33°60' E 132°44'  
2017-Dec-04 10:30N 33°49' E 131°37'612.1
2017-Dec-04 10:01N 33°50' E 131°30'612.1
2017-Dec-04 09:30N 33°51' E 131°23'612.0
2017-Dec-04 09:00N 33°52' E 131°15'4 9.0
2017-Dec-04 08:30N 33°56' E 131°14'1 1.5
2017-Dec-04 08:01N 33°57' E 131°14'0 0.0
2017-Dec-04 07:30N 33°57' E 131°14'0 0.0
2017-Dec-04 07:00N 33°57' E 131°14'0 0.0
2017-Dec-04 06:30N 33°57' E 131°14'0 0.0
2017-Dec-04 06:00N 33°57' E 131°14'1 1.1
2017-Dec-04 05:31N 33°56' E 131°14'0 0.8
2017-Dec-04 05:00N 33°56' E 131°14'5 9.7
2017-Dec-04 04:31N 33°52' E 131°11'612.2
2017-Dec-04 04:00N 33°49' E 131°04'4 7.7
2017-Dec-04 03:30N 33°47' E 131°00'0 0.0
2017-Dec-04 03:00N 33°47' E 131°00'0 0.0
2017-Dec-04 02:31N 33°47' E 131°00'0 0.0
2017-Dec-04 02:00N 33°47' E 131°00'0 0.0
2017-Dec-04 01:30N 33°47' E 131°00'0 0.0
2017-Dec-04 01:01N 33°47' E 131°00'0 0.0
2017-Dec-04 00:30N 33°47' E 131°00'0 0.0
2017-Dec-04 00:01N 33°47' E 131°00'0 0.0
2017-Dec-03 23:30N 33°47' E 131°00'0 0.0
2017-Dec-03 23:00N 33°47' E 131°00'0 0.0
2017-Dec-03 22:30N 33°47' E 131°00'0 0.0
2017-Dec-03 22:00N 33°47' E 131°00'0 0.0
2017-Dec-03 21:30N 33°47' E 131°00'0 0.0
2017-Dec-03 21:00N 33°47' E 131°00'0 0.0
2017-Dec-03 20:31N 33°47' E 131°00'0 0.0
2017-Dec-03 20:00N 33°47' E 131°00'0 0.0
2017-Dec-03 19:30N 33°47' E 131°00'0 0.0
2017-Dec-03 19:00N 33°47' E 131°00'0 0.0
2017-Dec-03 18:30N 33°47' E 131°00'0 0.0
2017-Dec-03 18:00N 33°47' E 131°00'0 0.0
2017-Dec-03 17:30N 33°47' E 131°00'0 0.0
2017-Dec-03 17:00N 33°47' E 131°00'0 0.0
2017-Dec-03 16:30N 33°47' E 131°00'0 0.0
2017-Dec-03 16:00N 33°47' E 131°00'0 0.0
2017-Dec-03 15:31N 33°47' E 131°00'0 0.0
2017-Dec-03 15:01N 33°47' E 131°00'0 0.0
2017-Dec-03 14:30N 33°47' E 131°00'0 0.0
2017-Dec-03 14:00N 33°47' E 131°00'0 0.0
2017-Dec-03 13:30N 33°47' E 131°00'0 0.0
2017-Dec-03 13:00N 33°47' E 131°00'0 0.0
2017-Dec-03 12:31N 33°47' E 131°00'0 0.0
2017-Dec-03 12:00N 33°47' E 131°00'0 0.0
2017-Dec-03 11:30N 33°47' E 131°00'0 0.0
2017-Dec-03 11:00N 33°47' E 131°00'0 0.0
2017-Dec-03 10:30N 33°47' E 131°00'0 0.0
2017-Dec-03 10:00N 33°47' E 131°00'0 0.0
2017-Dec-03 09:30N 33°47' E 131°00'0 0.2
2017-Dec-03 09:01N 33°47' E 131°00'5 9.3
2017-Dec-03 08:30N 33°48' E 131°06'713.0
2017-Dec-03 08:00N 33°48' E 131°13'613.0
2017-Dec-03 07:30N 33°47' E 131°21'713.0
2017-Dec-03 07:00N 33°46' E 131°29'613.0
2017-Dec-03 06:30N 33°47' E 131°37'612.5
2017-Dec-03 06:00N 33°46' E 131°44'612.5
2017-Dec-03 05:30N 33°45' E 131°52'1712.9
2017-Dec-03 04:13N 33°43' E 132°12'1613.7
2017-Dec-03 03:05N 33°48' E 132°29'113.9
2017-Dec-03 03:00N 33°49' E 132°30'713.5
2017-Dec-03 02:30N 33°53' E 132°36'612.6
2017-Dec-03 02:00N 33°57' E 132°42'7210.4
2017-Dec-02 19:05N 34°27' E 134°02'410.1
2017-Dec-02 18:40N 34°30' E 134°04'312.6
2017-Dec-02 18:26N 34°32' E 134°07'1012.0
2017-Dec-02 17:37N 34°36' E 134°18'412.1
2017-Dec-02 17:16N 34°39' E 134°22'412.2
2017-Dec-02 16:59N 34°40' E 134°26'612.0
2017-Dec-02 16:30N 34°42' E 134°33'611.9
2017-Dec-02 16:00N 34°42' E 134°40'611.6
2017-Dec-02 15:30N 34°41' E 134°47'3 1.2
2017-Dec-02 12:53N 34°42' E 134°50'0 0.0
2017-Dec-02 12:23N 34°42' E 134°50'0 0.0
2017-Dec-02 11:37N 34°42' E 134°50'0 0.0
2017-Dec-02 10:06N 34°42' E 134°50'0 0.0
2017-Dec-02 10:00N 34°42' E 134°50'0 0.0
2017-Dec-02 04:51N 34°42' E 134°50'0 0.0
2017-Dec-02 04:28N 34°42' E 134°50'0 0.0
2017-Dec-02 03:53N 34°42' E 134°50'0 0.0
2017-Dec-02 03:30N 34°42' E 134°50'0 0.0
2017-Dec-02 03:00N 34°42' E 134°50'0 0.0
2017-Dec-02 01:45N 34°42' E 134°50'0 0.0
2017-Dec-02 01:26N 34°42' E 134°50'0 0.0
2017-Dec-02 00:54N 34°42' E 134°50'0 0.0
2017-Dec-02 00:28N 34°42' E 134°50'0 0.0
2017-Dec-01 22:31N 34°42' E 134°50'0 0.0
2017-Dec-01 22:30N 34°42' E 134°50'3 5.2
2017-Dec-01 22:00N 34°40' E 134°49'0 0.4
2017-Dec-01 21:30N 34°40' E 134°49'0 0.0
2017-Dec-01 21:00N 34°40' E 134°49'0 0.0
2017-Dec-01 20:30N 34°40' E 134°49'0 0.0
2017-Dec-01 20:00N 34°40' E 134°49'0 0.1
2017-Dec-01 19:30N 34°40' E 134°49'0 0.0
2017-Dec-01 19:00N 34°40' E 134°49'0 0.0
2017-Dec-01 18:30N 34°40' E 134°49'0 0.0
2017-Dec-01 18:00N 34°40' E 134°49'0 0.0
2017-Dec-01 17:30N 34°40' E 134°49'  

Dump ship's entire track history